Time;durP1;ratioP1;P1;durP2;ratioP2;P2;SDS_P1;SDS_P2;PMS_P1;PMS_P2;Temp;Humidity;BMP_temperature;BMP_pressure;BME280_temperature;BME280_humidity;BME280_pressure;Samples;Min_cycle;Max_cycle;Signal;HPM_P1;HPM_P2
2023/07/29 00:02:05;;;;;;;11.88;9.10;;;19.20;99.90;;;;;;5052709;28;20037;-67
2023/07/29 00:04:31;;;;;;;14.75;9.40;;;19.20;99.90;;;;;;5052476;28;20486;-66
2023/07/29 00:06:56;;;;;;;15.57;10.30;;;19.20;99.90;;;;;;5052608;28;20033;-67
2023/07/29 00:09:22;;;;;;;14.27;10.32;;;19.10;99.90;;;;;;5045426;28;20037;-67
2023/07/29 00:11:47;;;;;;;13.90;9.43;;;19.10;99.90;;;;;;5053845;28;20044;-67
2023/07/29 00:14:13;;;;;;;13.95;9.43;;;19.10;99.90;;;;;;5053289;28;20072;-67
2023/07/29 00:16:38;;;;;;;13.80;9.20;;;19.10;99.90;;;;;;5049457;28;20418;-68
2023/07/29 00:19:04;;;;;;;12.93;9.55;;;19.10;99.90;;;;;;5042996;28;20028;-67
2023/07/29 00:21:30;;;;;;;11.77;8.85;;;19.10;99.90;;;;;;5053088;28;20052;-67
2023/07/29 00:24:00;;;;;;;12.20;9.40;;;19.10;99.90;;;;;;5053848;28;20037;-67
2023/07/29 00:26:28;;;;;;;13.93;9.98;;;19.10;99.90;;;;;;5043252;28;20055;-67
2023/07/29 00:28:55;;;;;;;13.65;9.70;;;19.10;99.90;;;;;;5052919;28;20103;-67
2023/07/29 00:31:20;;;;;;;11.93;8.60;;;19.10;99.90;;;;;;5053076;28;20120;-67
2023/07/29 00:33:46;;;;;;;18.48;9.90;;;19.00;99.90;;;;;;5045186;28;20116;-67
2023/07/29 00:36:11;;;;;;;16.15;10.48;;;19.00;99.90;;;;;;5051996;28;20044;-67
2023/07/29 00:38:37;;;;;;;14.82;10.40;;;19.00;99.90;;;;;;5052634;28;20029;-67
2023/07/29 00:41:03;;;;;;;14.43;10.50;;;19.00;99.90;;;;;;5053635;28;20067;-67
2023/07/29 00:43:29;;;;;;;17.77;11.20;;;19.00;99.90;;;;;;5046913;28;20088;-67
2023/07/29 00:45:57;;;;;;;14.75;10.82;;;19.10;99.90;;;;;;5045052;28;20068;-67
2023/07/29 00:48:23;;;;;;;15.30;10.43;;;19.10;99.90;;;;;;5046563;28;20403;-67
2023/07/29 00:50:49;;;;;;;16.02;10.20;;;19.10;99.90;;;;;;5052077;28;20040;-67
2023/07/29 00:53:15;;;;;;;17.27;10.27;;;19.10;99.90;;;;;;5049915;28;20029;-67
2023/07/29 00:55:41;;;;;;;17.17;10.30;;;19.10;99.90;;;;;;5052740;28;20076;-67
2023/07/29 00:58:07;;;;;;;14.18;10.15;;;19.10;99.90;;;;;;5045459;28;20037;-68
2023/07/29 01:00:33;;;;;;;15.52;10.13;;;19.10;99.90;;;;;;5053105;28;20044;-67
2023/07/29 01:02:58;;;;;;;14.07;9.30;;;19.00;99.90;;;;;;5053445;28;20575;-67
2023/07/29 01:05:30;;;;;;;15.35;9.68;;;19.00;99.90;;;;;;5050756;28;20040;-67
2023/07/29 01:08:38;;;;;;;15.50;9.57;;;19.00;99.90;;;;;;5049902;28;20106;-67
2023/07/29 01:11:22;;;;;;;15.32;9.90;;;19.00;99.90;;;;;;5026834;28;20183;-67
2023/07/29 01:14:03;;;;;;;13.00;9.20;;;18.90;99.90;;;;;;5015450;28;20224;-67
2023/07/29 01:16:53;;;;;;;13.32;10.45;;;18.90;99.90;;;;;;5045191;28;20134;-67
2023/07/29 01:19:57;;;;;;;12.38;8.85;;;18.90;99.90;;;;;;5044672;28;20045;-67
2023/07/29 01:22:24;;;;;;;14.30;10.10;;;18.90;99.90;;;;;;5045087;28;20041;-67
2023/07/29 01:24:49;;;;;;;15.35;10.50;;;18.80;99.90;;;;;;5043186;28;20075;-67
2023/07/29 01:27:15;;;;;;;17.10;10.38;;;18.90;99.90;;;;;;5043020;28;20091;-67
2023/07/29 01:29:41;;;;;;;14.25;9.35;;;18.80;99.90;;;;;;5049005;28;20376;-67
2023/07/29 01:32:25;;;;;;;14.73;9.82;;;18.80;99.90;;;;;;5052980;28;20112;-67
2023/07/29 01:35:09;;;;;;;16.02;8.77;;;18.90;99.90;;;;;;5044441;28;20083;-67
2023/07/29 01:37:37;;;;;;;13.60;9.07;;;18.80;99.90;;;;;;5047521;28;20029;-67
2023/07/29 01:40:05;;;;;;;16.15;9.82;;;18.80;99.90;;;;;;5048949;28;20053;-67
2023/07/29 01:42:31;;;;;;;13.10;8.70;;;18.80;99.90;;;;;;5049664;28;20080;-67
2023/07/29 01:44:56;;;;;;;13.65;9.45;;;18.80;99.90;;;;;;5054374;28;20098;-67
2023/07/29 01:47:22;;;;;;;12.00;8.57;;;18.80;99.90;;;;;;5039452;28;20037;-67
2023/07/29 01:49:48;;;;;;;11.55;8.23;;;18.80;99.90;;;;;;5063077;28;20525;-67
2023/07/29 01:52:14;;;;;;;12.80;8.98;;;18.80;99.90;;;;;;5044338;28;20033;-67
2023/07/29 01:54:39;;;;;;;11.82;8.70;;;18.70;99.90;;;;;;5050480;28;20121;-67
2023/07/29 01:57:05;;;;;;;12.20;8.77;;;18.70;99.90;;;;;;5052426;28;20457;-67
2023/07/29 01:59:30;;;;;;;14.10;8.60;;;18.70;99.90;;;;;;5048714;28;20044;-67
2023/07/29 02:01:56;;;;;;;13.98;9.13;;;18.70;99.90;;;;;;5050976;28;20265;-67
2023/07/29 02:04:22;;;;;;;12.10;8.85;;;18.70;99.90;;;;;;5051008;28;20037;-66
2023/07/29 02:06:47;;;;;;;11.20;8.13;;;18.70;99.90;;;;;;5041432;28;20067;-67
2023/07/29 02:09:13;;;;;;;11.50;8.80;;;18.60;99.90;;;;;;5047510;28;20157;-67
2023/07/29 02:11:38;;;;;;;11.52;7.75;;;18.60;99.90;;;;;;5042685;28;20176;-67
2023/07/29 02:14:04;;;;;;;11.00;8.02;;;18.60;99.90;;;;;;5039937;28;20071;-67
2023/07/29 02:16:30;;;;;;;12.30;7.68;;;18.60;99.90;;;;;;5046584;28;20044;-67
2023/07/29 02:18:55;;;;;;;10.82;7.82;;;18.60;99.90;;;;;;5050874;28;20115;-67
2023/07/29 02:21:21;;;;;;;11.15;6.90;;;18.60;99.90;;;;;;5050649;28;20116;-67
2023/07/29 02:23:47;;;;;;;9.15;7.35;;;18.50;99.90;;;;;;5050558;28;20062;-67
2023/07/29 02:26:12;;;;;;;10.88;7.28;;;18.50;99.90;;;;;;5042152;28;20041;-67
2023/07/29 02:28:38;;;;;;;9.43;7.53;;;18.60;99.90;;;;;;5051906;28;20116;-67
2023/07/29 02:31:24;;;;;;;9.25;7.03;;;18.50;99.90;;;;;;5042386;28;20040;-67
2023/07/29 02:33:50;;;;;;;8.75;6.82;;;18.60;99.90;;;;;;5050272;28;20283;-67
2023/07/29 02:36:16;;;;;;;8.75;6.90;;;18.50;99.90;;;;;;5049179;28;20449;-67
2023/07/29 02:38:42;;;;;;;10.10;6.70;;;18.50;99.90;;;;;;5049763;28;20037;-67
2023/07/29 02:41:09;;;;;;;11.48;7.03;;;18.50;99.90;;;;;;5044903;28;20040;-67
2023/07/29 02:43:36;;;;;;;10.60;6.68;;;18.50;99.90;;;;;;5048937;28;20076;-67
2023/07/29 02:46:02;;;;;;;9.13;6.90;;;18.50;99.90;;;;;;5047440;28;20044;-67
2023/07/29 02:48:28;;;;;;;9.65;6.28;;;18.50;99.90;;;;;;5047469;28;20580;-67
2023/07/29 02:50:54;;;;;;;8.30;6.22;;;18.40;99.90;;;;;;5047189;28;20131;-67
2023/07/29 02:53:20;;;;;;;9.93;6.15;;;18.40;99.90;;;;;;5049215;28;20124;-67
2023/07/29 02:55:45;;;;;;;8.95;5.95;;;18.40;99.90;;;;;;5040830;28;20120;-67
2023/07/29 02:58:11;;;;;;;8.32;5.68;;;18.40;99.90;;;;;;5029363;28;20041;-67
2023/07/29 03:00:37;;;;;;;7.75;6.05;;;18.40;99.90;;;;;;5050475;28;20065;-67
2023/07/29 03:03:02;;;;;;;9.40;5.82;;;18.40;99.90;;;;;;5047085;28;20119;-67
2023/07/29 03:05:28;;;;;;;9.55;6.10;;;18.30;99.90;;;;;;5050551;28;20041;-67
2023/07/29 03:07:54;;;;;;;9.40;6.10;;;18.30;99.90;;;;;;5049976;28;20076;-67
2023/07/29 03:10:20;;;;;;;7.35;5.97;;;18.30;99.90;;;;;;5041287;28;20045;-67
2023/07/29 03:12:46;;;;;;;9.20;5.88;;;18.30;99.90;;;;;;5051367;28;20398;-67
2023/07/29 03:15:12;;;;;;;8.77;5.43;;;18.20;99.90;;;;;;5048682;28;20116;-67
2023/07/29 03:17:38;;;;;;;12.05;5.70;;;18.20;99.90;;;;;;5049534;28;20045;-67
2023/07/29 03:20:04;;;;;;;8.05;5.53;;;18.20;99.90;;;;;;5048592;28;20037;-67
2023/07/29 03:22:30;;;;;;;7.65;5.70;;;18.20;99.90;;;;;;5053643;28;20489;-68
2023/07/29 03:24:56;;;;;;;8.90;5.43;;;18.20;99.90;;;;;;5052461;28;20045;-67
2023/07/29 03:27:21;;;;;;;6.30;4.60;;;18.10;99.90;;;;;;5053338;28;20064;-67
2023/07/29 03:29:47;;;;;;;7.72;5.13;;;18.10;99.90;;;;;;5051106;28;20061;-66
2023/07/29 03:32:13;;;;;;;7.47;5.10;;;18.10;99.90;;;;;;5053960;28;20401;-67
2023/07/29 03:34:40;;;;;;;7.30;4.45;;;18.10;99.90;;;;;;5051683;28;20037;-67
2023/07/29 03:37:06;;;;;;;6.70;4.57;;;18.00;99.90;;;;;;5046407;28;20115;-66
2023/07/29 03:39:32;;;;;;;7.00;4.15;;;18.10;99.90;;;;;;5049459;28;20131;-67
2023/07/29 03:41:58;;;;;;;7.90;4.47;;;18.00;99.90;;;;;;5054596;28;20041;-67
2023/07/29 03:44:23;;;;;;;5.13;3.70;;;18.00;99.90;;;;;;5057462;28;20052;-66
2023/07/29 03:46:49;;;;;;;5.57;3.50;;;18.00;99.90;;;;;;5046055;28;20037;-67
2023/07/29 03:49:15;;;;;;;4.70;3.78;;;18.00;99.90;;;;;;5050324;28;20036;-67
2023/07/29 03:51:40;;;;;;;5.35;3.75;;;18.00;99.90;;;;;;5047351;28;20029;-67
2023/07/29 03:54:06;;;;;;;5.88;3.70;;;17.80;99.90;;;;;;5053135;28;20029;-67
2023/07/29 03:56:32;;;;;;;5.75;3.55;;;17.90;99.90;;;;;;5045601;28;20120;-67
2023/07/29 03:59:05;;;;;;;3.97;3.45;;;17.90;99.90;;;;;;5052010;28;20041;-67
2023/07/29 04:01:31;;;;;;;3.95;3.17;;;17.90;99.90;;;;;;5051289;28;20037;-67
2023/07/29 04:03:57;;;;;;;5.80;3.67;;;17.90;99.90;;;;;;5051515;28;20075;-67
2023/07/29 04:06:23;;;;;;;5.68;3.20;;;17.90;99.90;;;;;;5051693;28;20033;-67
2023/07/29 04:08:49;;;;;;;5.18;3.20;;;17.90;99.90;;;;;;5052399;28;20044;-67
2023/07/29 04:11:14;;;;;;;5.65;3.58;;;18.00;99.90;;;;;;5051073;28;20114;-67
2023/07/29 04:13:40;;;;;;;5.75;3.47;;;17.90;99.90;;;;;;5048259;28;20072;-66
2023/07/29 04:16:07;;;;;;;6.43;3.35;;;17.90;99.90;;;;;;5045345;28;20089;-67
2023/07/29 04:18:33;;;;;;;4.85;3.38;;;17.90;99.90;;;;;;5053174;28;20043;-67
2023/07/29 04:20:58;;;;;;;5.80;3.08;;;17.90;99.90;;;;;;5047953;28;20033;-67
2023/07/29 04:23:24;;;;;;;5.10;3.40;;;17.90;99.90;;;;;;5053323;28;20400;-67
2023/07/29 04:25:49;;;;;;;4.70;3.20;;;17.90;99.90;;;;;;5051683;28;20126;-67
2023/07/29 04:28:15;;;;;;;6.28;3.15;;;17.90;99.90;;;;;;5049574;28;20129;-67
2023/07/29 04:30:41;;;;;;;5.40;3.20;;;17.90;99.90;;;;;;5049863;28;20041;-67
2023/07/29 04:33:07;;;;;;;4.80;3.30;;;17.90;99.90;;;;;;5047640;28;20033;-67
2023/07/29 04:35:32;;;;;;;4.93;3.00;;;17.90;99.90;;;;;;5049378;28;20037;-67
2023/07/29 04:37:58;;;;;;;6.00;3.03;;;17.90;99.90;;;;;;5048406;28;20056;-67
2023/07/29 04:40:24;;;;;;;4.40;2.83;;;17.90;99.90;;;;;;5049861;28;20136;-67
2023/07/29 04:42:51;;;;;;;4.85;2.78;;;17.90;99.90;;;;;;5053326;28;20041;-67
2023/07/29 04:45:16;;;;;;;5.07;3.53;;;17.90;99.90;;;;;;5052685;28;20041;-67
2023/07/29 04:47:42;;;;;;;4.68;2.55;;;18.00;99.90;;;;;;5053162;28;20128;-67
2023/07/29 04:50:08;;;;;;;4.63;2.50;;;18.00;99.90;;;;;;5053204;28;20048;-67
2023/07/29 04:52:34;;;;;;;4.03;2.85;;;18.00;99.90;;;;;;5053745;28;20037;-67
2023/07/29 04:55:00;;;;;;;5.45;2.75;;;18.00;99.90;;;;;;5052336;28;20078;-67
2023/07/29 04:57:25;;;;;;;7.05;2.70;;;18.00;99.90;;;;;;5052608;28;20120;-66
2023/07/29 04:59:51;;;;;;;4.47;2.78;;;18.00;99.90;;;;;;5049042;28;20112;-66
2023/07/29 05:02:16;;;;;;;5.95;2.40;;;18.00;99.90;;;;;;5052772;28;20532;-67
2023/07/29 05:04:42;;;;;;;4.65;2.40;;;18.00;99.90;;;;;;5053073;28;20506;-67
2023/07/29 05:07:08;;;;;;;4.68;2.70;;;18.00;99.90;;;;;;5051566;28;20072;-67
2023/07/29 05:09:33;;;;;;;3.70;2.30;;;18.00;99.90;;;;;;5052911;28;20094;-67
2023/07/29 05:11:59;;;;;;;5.40;2.50;;;18.00;99.90;;;;;;5051591;28;20534;-67
2023/07/29 05:14:25;;;;;;;4.60;2.63;;;18.00;99.90;;;;;;5052111;28;20040;-67
2023/07/29 05:16:50;;;;;;;11.15;2.95;;;18.00;99.90;;;;;;5049567;28;20033;-67
2023/07/29 05:19:16;;;;;;;4.63;2.50;;;18.00;99.90;;;;;;5050198;28;20037;-67
2023/07/29 05:21:41;;;;;;;5.68;2.42;;;18.00;99.90;;;;;;5052197;28;20041;-67
2023/07/29 05:24:07;;;;;;;6.20;3.20;;;18.00;99.90;;;;;;5051973;28;20033;-66
2023/07/29 05:26:33;;;;;;;10.07;3.38;;;18.10;99.90;;;;;;5049486;28;20032;-67
2023/07/29 05:28:58;;;;;;;3.33;2.50;;;18.10;99.90;;;;;;5050402;28;20136;-67
2023/07/29 05:31:24;;;;;;;6.40;3.00;;;18.10;99.90;;;;;;5051858;28;20033;-67
2023/07/29 05:33:49;;;;;;;5.80;3.40;;;18.20;99.90;;;;;;5050282;28;20033;-66
2023/07/29 05:36:15;;;;;;;8.63;3.88;;;18.10;99.90;;;;;;5045500;22;20033;-69
2023/07/29 05:38:41;;;;;;;6.65;3.30;;;18.20;99.90;;;;;;5026222;28;20064;-69
2023/07/29 05:41:07;;;;;;;6.60;3.50;;;18.20;99.90;;;;;;5028715;28;20053;-69
2023/07/29 05:43:32;;;;;;;6.65;3.70;;;18.20;99.90;;;;;;5030225;28;20088;-69
2023/07/29 05:45:58;;;;;;;6.90;3.42;;;18.20;99.90;;;;;;5015756;28;20049;-69
2023/07/29 05:48:23;;;;;;;6.25;3.40;;;18.20;99.90;;;;;;5013326;28;20026;-69
2023/07/29 05:50:50;;;;;;;7.38;3.70;;;18.20;99.90;;;;;;5022410;28;20050;-69
2023/07/29 05:53:15;;;;;;;8.30;3.92;;;18.20;99.90;;;;;;5026411;28;20041;-69
2023/07/29 05:55:41;;;;;;;8.40;4.25;;;18.20;99.90;;;;;;5019715;28;20084;-69
2023/07/29 05:58:07;;;;;;;6.88;4.18;;;18.20;99.90;;;;;;5012391;28;20033;-69
2023/07/29 06:00:32;;;;;;;7.40;4.25;;;18.20;99.90;;;;;;5015660;28;20060;-68
2023/07/29 06:02:58;;;;;;;8.02;4.22;;;18.20;99.90;;;;;;5020479;28;20050;-69
2023/07/29 06:05:23;;;;;;;8.52;4.55;;;18.20;99.90;;;;;;5027765;28;20102;-69
2023/07/29 06:07:49;;;;;;;7.22;4.70;;;18.30;99.90;;;;;;5022499;28;20041;-69
2023/07/29 06:10:18;;;;;;;11.77;5.15;;;18.30;99.90;;;;;;5015201;28;20515;-69
2023/07/29 06:12:45;;;;;;;8.60;4.63;;;18.30;99.90;;;;;;5020952;28;20046;-69
2023/07/29 06:15:12;;;;;;;8.90;4.70;;;18.30;99.90;;;;;;5028175;28;20069;-69
2023/07/29 06:17:38;;;;;;;10.35;5.47;;;18.30;99.90;;;;;;5026120;28;20049;-69
2023/07/29 06:20:04;;;;;;;9.63;5.15;;;18.30;99.90;;;;;;5021438;28;20385;-70
2023/07/29 06:22:30;;;;;;;8.55;4.80;;;18.30;99.90;;;;;;5023906;28;20033;-69
2023/07/29 06:24:55;;;;;;;9.88;5.32;;;18.40;99.90;;;;;;5027788;28;20144;-69
2023/07/29 06:27:21;;;;;;;9.93;4.93;;;18.40;99.90;;;;;;5029939;28;20033;-69
2023/07/29 06:29:46;;;;;;;7.45;5.18;;;18.40;99.90;;;;;;5029758;28;20107;-69
2023/07/29 06:32:12;;;;;;;11.65;5.40;;;18.50;99.90;;;;;;5030785;28;20889;-69
2023/07/29 06:34:38;;;;;;;12.60;5.15;;;18.50;99.90;;;;;;5029734;28;20152;-69
2023/07/29 06:37:03;;;;;;;8.80;5.07;;;18.60;99.90;;;;;;5031549;28;20068;-70
2023/07/29 06:39:29;;;;;;;7.65;5.15;;;18.60;99.90;;;;;;5031240;28;20041;-69
2023/07/29 06:41:54;;;;;;;8.82;4.93;;;18.70;99.90;;;;;;5031609;28;20041;-69
2023/07/29 06:44:20;;;;;;;8.98;5.45;;;18.70;99.90;;;;;;5029440;28;20048;-70
2023/07/29 06:46:46;;;;;;;10.23;5.45;;;18.70;99.90;;;;;;5031038;28;20046;-69
2023/07/29 06:49:12;;;;;;;8.48;5.43;;;18.70;99.90;;;;;;5031609;28;20069;-69
2023/07/29 06:51:37;;;;;;;9.60;5.13;;;18.80;99.90;;;;;;5029650;28;20029;-70
2023/07/29 06:54:03;;;;;;;10.80;4.93;;;18.90;99.90;;;;;;5030821;28;20136;-70
2023/07/29 06:56:29;;;;;;;10.02;5.00;;;19.00;99.90;;;;;;5034515;28;20060;-70
2023/07/29 06:58:54;;;;;;;8.68;5.38;;;19.00;99.90;;;;;;5035001;28;20041;-70
2023/07/29 07:01:20;;;;;;;10.15;5.55;;;19.10;99.90;;;;;;5021794;28;20038;-70
2023/07/29 07:03:46;;;;;;;10.30;5.53;;;19.10;99.90;;;;;;5031250;28;20033;-70
2023/07/29 07:06:11;;;;;;;9.38;5.18;;;19.10;99.90;;;;;;5029344;28;20050;-70
2023/07/29 07:08:37;;;;;;;9.73;5.18;;;19.20;99.90;;;;;;5033881;28;20045;-70
2023/07/29 07:11:03;;;;;;;6.88;5.32;;;19.20;99.90;;;;;;5026745;28;20129;-70
2023/07/29 07:13:28;;;;;;;10.45;6.10;;;19.20;99.90;;;;;;5023195;28;20034;-70
2023/07/29 07:15:55;;;;;;;10.23;6.07;;;19.20;99.90;;;;;;5032358;28;20127;-70
2023/07/29 07:18:23;;;;;;;11.52;6.30;;;19.20;99.90;;;;;;5033390;28;20480;-70
2023/07/29 07:20:50;;;;;;;10.38;6.15;;;19.10;99.90;;;;;;5023187;28;20051;-70
2023/07/29 07:23:16;;;;;;;12.82;5.47;;;19.10;99.90;;;;;;5033488;28;20495;-70
2023/07/29 07:25:45;;;;;;;11.48;6.32;;;19.10;99.90;;;;;;5033581;28;20399;-70
2023/07/29 07:28:10;;;;;;;9.70;6.35;;;19.20;99.90;;;;;;5034310;28;20034;-70
2023/07/29 07:30:41;;;;;;;9.90;6.07;;;19.30;99.90;;;;;;5030009;28;20068;-70
2023/07/29 07:33:07;;;;;;;9.75;5.95;;;19.30;99.90;;;;;;5024532;28;20056;-70
2023/07/29 07:35:32;;;;;;;12.88;6.80;;;19.50;99.90;;;;;;5033635;28;20037;-70
2023/07/29 07:37:59;;;;;;;7.72;5.72;;;19.70;99.90;;;;;;5036181;28;20499;-70
2023/07/29 07:40:25;;;;;;;7.25;5.10;;;19.70;99.90;;;;;;5031578;28;20172;-71
2023/07/29 07:42:50;;;;;;;8.05;5.20;;;19.80;99.90;;;;;;5030994;28;20513;-70
2023/07/29 07:45:17;;;;;;;10.20;5.28;;;19.90;99.90;;;;;;5029771;28;20533;-70
2023/07/29 07:47:43;;;;;;;8.55;4.97;;;20.10;99.90;;;;;;5036016;28;20052;-70
2023/07/29 07:50:09;;;;;;;8.05;4.97;;;20.10;99.90;;;;;;5024519;28;20400;-70
2023/07/29 07:52:34;;;;;;;7.00;4.25;;;20.30;99.90;;;;;;5031561;28;20052;-70
2023/07/29 07:55:00;;;;;;;6.82;4.45;;;20.30;99.90;;;;;;5024342;28;20103;-70
2023/07/29 07:57:26;;;;;;;7.70;4.35;;;20.30;99.90;;;;;;5031415;28;20037;-70
2023/07/29 07:59:52;;;;;;;8.00;3.80;;;20.40;99.90;;;;;;5026970;28;20037;-70
2023/07/29 08:02:18;;;;;;;10.57;3.78;;;20.50;99.90;;;;;;5017882;28;20085;-70
2023/07/29 08:04:44;;;;;;;5.72;3.15;;;20.60;99.90;;;;;;5024568;28;20521;-70
2023/07/29 08:07:09;;;;;;;6.07;3.53;;;20.70;99.90;;;;;;5024741;28;20046;-70
2023/07/29 08:09:35;;;;;;;7.18;3.60;;;20.70;99.90;;;;;;5015267;28;20065;-70
2023/07/29 08:12:00;;;;;;;9.13;4.18;;;20.60;99.90;;;;;;5022508;28;20076;-70
2023/07/29 08:14:26;;;;;;;5.43;3.35;;;20.50;99.90;;;;;;5022584;28;20025;-70
2023/07/29 08:16:52;;;;;;;7.60;3.50;;;20.40;99.90;;;;;;5025001;28;20029;-70
2023/07/29 08:19:18;;;;;;;6.53;3.40;;;20.40;99.90;;;;;;5030728;28;20079;-70
2023/07/29 08:21:43;;;;;;;6.47;3.10;;;20.50;99.90;;;;;;5025913;28;20457;-70
2023/07/29 08:24:09;;;;;;;5.50;3.20;;;20.60;99.90;;;;;;5021073;28;20030;-71
2023/07/29 08:26:34;;;;;;;6.15;3.30;;;20.90;99.90;;;;;;5022794;28;20096;-71
2023/07/29 08:29:00;;;;;;;4.25;3.00;;;21.10;99.90;;;;;;5016083;28;20034;-70
2023/07/29 08:31:26;;;;;;;6.32;3.47;;;21.10;99.90;;;;;;5014230;28;20076;-71
2023/07/29 08:33:51;;;;;;;5.25;3.25;;;21.10;99.90;;;;;;5016395;28;20372;-70
2023/07/29 08:36:17;;;;;;;3.78;2.95;;;21.10;99.90;;;;;;5024726;28;20052;-70
2023/07/29 08:38:42;;;;;;;5.90;3.33;;;21.20;99.90;;;;;;5026187;28;20117;-71
2023/07/29 08:41:11;;;;;;;4.63;3.25;;;21.40;99.90;;;;;;5029134;28;20407;-70
2023/07/29 08:43:39;;;;;;;6.35;3.03;;;21.60;99.90;;;;;;5021968;28;20045;-70
2023/07/29 08:46:06;;;;;;;4.50;2.95;;;21.70;99.90;;;;;;5023203;28;20075;-71
2023/07/29 08:48:43;;;;;;;5.82;2.72;;;21.60;99.90;;;;;;5020947;28;20536;-71
2023/07/29 08:51:10;;;;;;;5.90;2.85;;;21.60;99.90;;;;;;5024236;28;20474;-71
2023/07/29 08:53:36;;;;;;;6.18;3.20;;;21.50;99.90;;;;;;5025460;28;20041;-71
2023/07/29 08:56:02;;;;;;;7.95;3.53;;;21.60;99.90;;;;;;5021507;28;20044;-71
2023/07/29 08:58:29;;;;;;;6.35;2.90;;;21.70;99.90;;;;;;5028164;28;20041;-71
2023/07/29 09:00:54;;;;;;;6.47;3.53;;;21.70;99.90;;;;;;5033022;28;20034;-71
2023/07/29 09:03:21;;;;;;;5.63;2.90;;;21.70;99.90;;;;;;5029176;28;20045;-71
2023/07/29 09:05:47;;;;;;;6.07;2.80;;;21.70;99.90;;;;;;5023618;28;20439;-71
2023/07/29 09:08:14;;;;;;;4.47;2.60;;;21.60;99.90;;;;;;5024221;28;20029;-71
2023/07/29 09:10:40;;;;;;;5.32;2.90;;;21.50;99.90;;;;;;5029507;28;20634;-71
2023/07/29 09:13:06;;;;;;;5.28;2.47;;;21.40;99.90;;;;;;5031403;28;20042;-71
2023/07/29 09:15:34;;;;;;;8.68;2.40;;;21.30;99.90;;;;;;5031944;28;20048;-71
2023/07/29 09:18:10;;;;;;;5.50;2.85;;;21.40;99.90;;;;;;5026408;28;20056;-71
2023/07/29 09:20:36;;;;;;;4.93;2.25;;;21.50;99.90;;;;;;5028043;28;20108;-71
2023/07/29 09:23:01;;;;;;;3.72;2.60;;;21.70;99.90;;;;;;5023374;28;20181;-71
2023/07/29 09:25:28;;;;;;;4.85;2.40;;;21.90;99.90;;;;;;5025919;28;20075;-71
2023/07/29 09:28:01;;;;;;;4.35;2.42;;;22.20;99.90;;;;;;5029501;28;20050;-71
2023/07/29 09:30:28;;;;;;;5.47;2.40;;;22.40;99.90;;;;;;5031149;28;20118;-71
2023/07/29 09:32:57;;;;;;;3.13;2.20;;;22.40;99.90;;;;;;5027687;28;20124;-71
2023/07/29 09:35:23;;;;;;;4.50;1.88;;;22.40;99.90;;;;;;5028297;28;20033;-71
2023/07/29 09:37:51;;;;;;;3.88;2.10;;;22.30;99.90;;;;;;5027797;28;20033;-71
2023/07/29 09:40:18;;;;;;;3.22;1.80;;;22.20;99.90;;;;;;5028154;28;20069;-71
2023/07/29 09:42:56;;;;;;;4.15;1.90;;;22.20;99.90;;;;;;5026592;28;20056;-71
2023/07/29 09:45:23;;;;;;;4.60;2.05;;;22.10;99.90;;;;;;5022229;28;20029;-69
2023/07/29 09:47:49;;;;;;;3.75;1.70;;;22.10;99.90;;;;;;5019241;28;20123;-70
2023/07/29 09:50:15;;;;;;;3.15;1.70;;;22.00;99.90;;;;;;5022582;28;20038;-70
2023/07/29 09:52:41;;;;;;;4.38;1.90;;;22.10;99.90;;;;;;5019369;28;20041;-70
2023/07/29 09:55:07;;;;;;;3.13;2.08;;;22.30;99.90;;;;;;5020839;28;20048;-70
2023/07/29 09:57:34;;;;;;;3.85;1.75;;;22.40;99.90;;;;;;5021185;28;20123;-70
2023/07/29 09:59:59;;;;;;;3.70;1.75;;;22.50;99.90;;;;;;5024882;28;20052;-70
2023/07/29 10:02:28;;;;;;;6.82;1.88;;;22.60;99.90;;;;;;5011859;28;20045;-70
2023/07/29 10:04:55;;;;;;;2.72;1.67;;;22.70;99.90;;;;;;5021109;28;20041;-70
2023/07/29 10:07:21;;;;;;;3.85;1.77;;;22.70;99.90;;;;;;5024952;28;20133;-71
2023/07/29 10:09:47;;;;;;;4.55;1.85;;;22.60;99.90;;;;;;5015265;28;20096;-71
2023/07/29 10:12:13;;;;;;;5.95;2.25;;;22.40;99.90;;;;;;5018886;28;20536;-70
2023/07/29 10:14:39;;;;;;;3.33;1.70;;;22.40;99.90;;;;;;5014181;28;20118;-70
2023/07/29 10:17:05;;;;;;;10.93;2.63;;;22.50;99.90;;;;;;5020023;28;20030;-71
2023/07/29 10:19:31;;;;;;;3.65;1.52;;;22.50;99.90;;;;;;5016189;28;20065;-71
2023/07/29 10:22:02;;;;;;;3.42;1.98;;;22.60;99.90;;;;;;5018774;28;20049;-72
2023/07/29 10:24:33;;;;;;;2.78;1.60;;;22.60;99.90;;;;;;5024698;28;20073;-71
2023/07/29 10:27:00;;;;;;;3.22;1.70;;;22.60;99.90;;;;;;5027883;28;20033;-71
2023/07/29 10:29:32;;;;;;;3.72;1.52;;;22.60;99.90;;;;;;5021695;28;20118;-71
2023/07/29 10:32:00;;;;;;;4.97;1.98;;;22.60;99.90;;;;;;5019862;28;20160;-71
2023/07/29 10:34:27;;;;;;;2.67;1.98;;;22.60;99.90;;;;;;5019347;28;20046;-71
2023/07/29 10:36:53;;;;;;;3.33;1.80;;;22.60;99.90;;;;;;5024048;28;20037;-71
2023/07/29 10:39:18;;;;;;;3.30;1.83;;;22.80;99.90;;;;;;5018856;28;20120;-71
2023/07/29 10:42:01;;;;;;;3.95;2.08;;;23.00;99.90;;;;;;5014397;28;20165;-71
2023/07/29 10:44:39;;;;;;;4.63;2.88;;;23.20;99.90;;;;;;5022687;28;20396;-71
2023/07/29 10:47:28;;;;;;;4.80;2.95;;;23.20;99.90;;;;;;5020323;28;20037;-71
2023/07/29 10:49:58;;;;;;;3.75;2.35;;;23.10;99.90;;;;;;5022464;28;20449;-71
2023/07/29 10:52:36;;;;;;;4.50;2.50;;;23.00;99.90;;;;;;5017721;28;20037;-71
2023/07/29 10:55:03;;;;;;;7.97;2.58;;;22.90;99.90;;;;;;5021767;28;20038;-70
2023/07/29 10:57:41;;;;;;;4.05;2.83;;;22.70;99.90;;;;;;5017851;28;20037;-71
2023/07/29 11:00:07;;;;;;;4.47;2.95;;;22.60;99.90;;;;;;5015313;28;20042;-71
2023/07/29 11:02:37;;;;;;;6.07;3.05;;;22.60;99.90;;;;;;5022708;28;20087;-71
2023/07/29 11:05:15;;;;;;;5.70;3.90;;;22.60;99.90;;;;;;5016807;28;20492;-71
2023/07/29 11:07:45;;;;;;;5.68;4.30;;;22.40;99.90;;;;;;5022958;28;20040;-70
2023/07/29 11:10:12;;;;;;;5.22;4.70;;;22.30;99.90;;;;;;5034296;28;20046;-70
2023/07/29 11:12:51;;;;;;;5.25;4.75;;;22.20;99.90;;;;;;5023847;28;20407;-71
2023/07/29 11:15:28;;;;;;;6.50;3.65;;;22.20;99.90;;;;;;5020397;28;20037;-70
2023/07/29 11:17:58;;;;;;;7.57;4.47;;;22.40;99.90;;;;;;5042545;28;20037;-70
2023/07/29 11:20:34;;;;;;;6.10;3.80;;;22.40;99.90;;;;;;5023175;28;20072;-70
2023/07/29 11:23:01;;;;;;;5.80;3.65;;;22.40;99.90;;;;;;5025738;28;20038;-70
2023/07/29 11:25:30;;;;;;;4.05;3.65;;;22.40;99.90;;;;;;5043843;28;20549;-70
2023/07/29 11:27:57;;;;;;;3.90;3.40;;;22.30;99.90;;;;;;5020500;28;20124;-70
2023/07/29 11:30:23;;;;;;;5.45;3.45;;;22.20;99.90;;;;;;5014669;28;20037;-70
2023/07/29 11:32:49;;;;;;;4.10;3.65;;;22.30;99.90;;;;;;5023167;28;20041;-70
2023/07/29 11:35:17;;;;;;;4.50;3.03;;;22.50;99.90;;;;;;5034533;22;20392;-68
2023/07/29 11:37:51;;;;;;;3.92;3.00;;;22.80;99.90;;;;;;5060407;28;20093;-67
2023/07/29 11:40:19;;;;;;;6.88;3.20;;;23.10;99.90;;;;;;5062032;28;20037;-68
2023/07/29 11:42:46;;;;;;;6.38;2.85;;;23.20;99.90;;;;;;5053088;28;20437;-68
2023/07/29 11:45:13;;;;;;;5.15;3.10;;;23.30;99.90;;;;;;5063208;28;20044;-68
2023/07/29 11:47:39;;;;;;;4.32;2.92;;;23.20;99.90;;;;;;5055628;28;20048;-68
2023/07/29 11:50:07;;;;;;;4.25;2.42;;;23.00;99.90;;;;;;5047821;28;20037;-67
2023/07/29 11:52:33;;;;;;;7.38;2.60;;;23.00;99.90;;;;;;5045641;28;20432;-68
2023/07/29 11:55:01;;;;;;;4.53;2.72;;;23.00;99.90;;;;;;5053954;28;20037;-68
2023/07/29 11:57:27;;;;;;;3.28;2.15;;;23.10;99.90;;;;;;5040738;28;20049;-68
2023/07/29 11:59:53;;;;;;;3.13;2.13;;;23.00;99.90;;;;;;5034902;28;20040;-68
2023/07/29 12:02:20;;;;;;;5.53;2.10;;;23.00;99.90;;;;;;5052270;28;20299;-69
2023/07/29 12:04:47;;;;;;;4.65;1.90;;;22.90;99.90;;;;;;5044466;28;20040;-68
2023/07/29 12:07:14;;;;;;;3.08;1.92;;;23.10;99.90;;;;;;5064101;28;20119;-68
2023/07/29 12:09:41;;;;;;;5.65;2.10;;;23.30;99.90;;;;;;5060526;28;20049;-68
2023/07/29 12:12:08;;;;;;;4.50;1.83;;;23.50;99.90;;;;;;5052661;28;20040;-68
2023/07/29 12:14:34;;;;;;;4.13;2.53;;;23.70;99.90;;;;;;5062060;28;20041;-68
2023/07/29 12:17:01;;;;;;;3.22;1.80;;;23.80;99.90;;;;;;5043373;28;20057;-68
2023/07/29 12:19:37;;;;;;;4.60;1.90;;;23.80;99.90;;;;;;5040054;28;20041;-68
2023/07/29 12:22:05;;;;;;;3.38;1.75;;;23.90;99.90;;;;;;5044765;28;20038;-68
2023/07/29 12:24:32;;;;;;;2.90;1.83;;;24.10;99.90;;;;;;5051850;28;20063;-69
2023/07/29 12:26:58;;;;;;;3.53;2.10;;;24.20;99.90;;;;;;5043752;28;20033;-68
2023/07/29 12:29:24;;;;;;;2.80;1.63;;;24.30;99.90;;;;;;5042289;28;20468;-68
2023/07/29 12:32:00;;;;;;;5.07;1.92;;;24.30;99.90;;;;;;5037948;28;20071;-69
2023/07/29 12:34:28;;;;;;;5.35;1.80;;;24.30;99.90;;;;;;5041070;28;20033;-68
2023/07/29 12:36:55;;;;;;;3.30;1.80;;;24.20;99.90;;;;;;5033930;28;20033;-68
2023/07/29 12:39:26;;;;;;;4.25;2.03;;;24.10;99.90;;;;;;5042303;28;20433;-68
2023/07/29 12:41:54;;;;;;;2.92;2.13;;;24.00;99.90;;;;;;5051189;28;20037;-67
2023/07/29 12:44:20;;;;;;;4.30;1.90;;;23.90;99.90;;;;;;5048625;28;20033;-68